sensor_id;sensor_type;location;lat;lon;timestamp;pressure;altitude;pressure_sealevel;temperature;humidity
9139;BME280;4604;48.616;9.548;2023-04-24T00:00:46;95912.41;;;12.34;73.32
9139;BME280;4604;48.616;9.548;2023-04-24T00:03:13;95918.66;;;12.33;73.76
9139;BME280;4604;48.616;9.548;2023-04-24T00:05:40;95920.97;;;12.36;74.00
9139;BME280;4604;48.616;9.548;2023-04-24T00:08:08;95911.09;;;12.30;74.81
9139;BME280;4604;48.616;9.548;2023-04-24T00:10:35;95916.81;;;12.41;72.41
9139;BME280;4604;48.616;9.548;2023-04-24T00:13:01;95928.50;;;12.47;71.28
9139;BME280;4604;48.616;9.548;2023-04-24T00:15:28;95935.50;;;12.40;71.66
9139;BME280;4604;48.616;9.548;2023-04-24T00:17:55;95927.09;;;12.36;71.92
9139;BME280;4604;48.616;9.548;2023-04-24T00:20:21;95926.75;;;12.31;72.29
9139;BME280;4604;48.616;9.548;2023-04-24T00:22:48;95929.09;;;12.34;72.29
9139;BME280;4604;48.616;9.548;2023-04-24T00:25:16;95928.66;;;12.23;73.26
9139;BME280;4604;48.616;9.548;2023-04-24T00:27:43;95942.03;;;12.29;72.95
9139;BME280;4604;48.616;9.548;2023-04-24T00:30:10;95926.75;;;12.31;72.38
9139;BME280;4604;48.616;9.548;2023-04-24T00:32:37;95923.19;;;12.24;72.15
9139;BME280;4604;48.616;9.548;2023-04-24T00:35:04;95930.44;;;12.30;72.31
9139;BME280;4604;48.616;9.548;2023-04-24T00:37:31;95927.19;;;12.43;71.25
9139;BME280;4604;48.616;9.548;2023-04-24T00:39:58;95920.84;;;12.29;70.60
9139;BME280;4604;48.616;9.548;2023-04-24T00:42:27;95924.97;;;12.32;71.23
9139;BME280;4604;48.616;9.548;2023-04-24T00:44:53;95924.56;;;12.43;70.38
9139;BME280;4604;48.616;9.548;2023-04-24T00:47:20;95921.97;;;12.35;71.38
9139;BME280;4604;48.616;9.548;2023-04-24T00:49:47;95918.38;;;12.28;72.16
9139;BME280;4604;48.616;9.548;2023-04-24T00:52:13;95912.50;;;12.40;72.04
9139;BME280;4604;48.616;9.548;2023-04-24T00:54:42;95913.31;;;12.41;71.58
9139;BME280;4604;48.616;9.548;2023-04-24T00:57:10;95904.97;;;12.29;72.00
9139;BME280;4604;48.616;9.548;2023-04-24T00:59:38;95911.38;;;12.35;72.65
9139;BME280;4604;48.616;9.548;2023-04-24T01:02:06;95900.22;;;12.25;73.38
9139;BME280;4604;48.616;9.548;2023-04-24T01:04:34;95907.78;;;12.28;73.00
9139;BME280;4604;48.616;9.548;2023-04-24T01:07:01;95897.09;;;12.44;71.19
9139;BME280;4604;48.616;9.548;2023-04-24T01:09:28;95896.84;;;12.31;71.91
9139;BME280;4604;48.616;9.548;2023-04-24T01:11:55;95891.25;;;12.26;73.12
9139;BME280;4604;48.616;9.548;2023-04-24T01:14:22;95890.09;;;12.28;74.00
9139;BME280;4604;48.616;9.548;2023-04-24T01:16:50;95884.56;;;12.15;74.93
9139;BME280;4604;48.616;9.548;2023-04-24T01:19:18;95889.03;;;12.14;76.06
9139;BME280;4604;48.616;9.548;2023-04-24T01:21:47;95884.06;;;12.11;76.81
9139;BME280;4604;48.616;9.548;2023-04-24T01:24:18;95885.59;;;12.06;77.09
9139;BME280;4604;48.616;9.548;2023-04-24T01:26:45;95885.75;;;12.04;77.47
9139;BME280;4604;48.616;9.548;2023-04-24T01:29:12;95888.94;;;11.99;78.00
9139;BME280;4604;48.616;9.548;2023-04-24T01:31:39;95887.28;;;11.98;79.00
9139;BME280;4604;48.616;9.548;2023-04-24T01:34:06;95890.09;;;11.97;80.13
9139;BME280;4604;48.616;9.548;2023-04-24T01:36:34;95874.94;;;11.91;81.00
9139;BME280;4604;48.616;9.548;2023-04-24T01:39:01;95873.78;;;11.93;81.96
9139;BME280;4604;48.616;9.548;2023-04-24T01:41:30;95879.19;;;12.00;81.63
9139;BME280;4604;48.616;9.548;2023-04-24T01:43:56;95881.19;;;11.98;81.57
9139;BME280;4604;48.616;9.548;2023-04-24T01:46:23;95878.19;;;12.01;82.20
9139;BME280;4604;48.616;9.548;2023-04-24T01:48:50;95880.88;;;11.93;82.61
9139;BME280;4604;48.616;9.548;2023-04-24T01:51:18;95874.28;;;11.89;82.98
9139;BME280;4604;48.616;9.548;2023-04-24T01:53:45;95874.78;;;11.84;82.90
9139;BME280;4604;48.616;9.548;2023-04-24T01:56:11;95883.88;;;11.82;83.52
9139;BME280;4604;48.616;9.548;2023-04-24T01:58:39;95883.03;;;11.89;83.29
9139;BME280;4604;48.616;9.548;2023-04-24T02:01:06;95876.94;;;11.89;83.02
9139;BME280;4604;48.616;9.548;2023-04-24T02:03:33;95871.94;;;11.94;82.46
9139;BME280;4604;48.616;9.548;2023-04-24T02:06:00;95873.94;;;11.92;81.40
9139;BME280;4604;48.616;9.548;2023-04-24T02:08:26;95880.25;;;11.83;81.60
9139;BME280;4604;48.616;9.548;2023-04-24T02:10:53;95884.22;;;11.87;81.65
9139;BME280;4604;48.616;9.548;2023-04-24T02:13:19;95884.28;;;12.02;80.82
9139;BME280;4604;48.616;9.548;2023-04-24T02:15:47;95876.28;;;11.87;82.05
9139;BME280;4604;48.616;9.548;2023-04-24T02:18:14;95879.25;;;11.84;83.10
9139;BME280;4604;48.616;9.548;2023-04-24T02:20:42;95878.75;;;11.80;82.78
9139;BME280;4604;48.616;9.548;2023-04-24T02:23:08;95877.47;;;11.76;83.66
9139;BME280;4604;48.616;9.548;2023-04-24T02:25:35;95884.44;;;11.69;85.08
9139;BME280;4604;48.616;9.548;2023-04-24T02:28:01;95881.66;;;11.62;86.28
9139;BME280;4604;48.616;9.548;2023-04-24T02:30:28;95878.19;;;11.62;86.86
9139;BME280;4604;48.616;9.548;2023-04-24T02:32:56;95880.47;;;11.65;87.92
9139;BME280;4604;48.616;9.548;2023-04-24T02:35:23;95876.19;;;11.64;87.94
9139;BME280;4604;48.616;9.548;2023-04-24T02:37:49;95885.25;;;11.69;87.66
9139;BME280;4604;48.616;9.548;2023-04-24T02:40:16;95885.97;;;11.63;88.09
9139;BME280;4604;48.616;9.548;2023-04-24T02:42:43;95880.34;;;11.58;88.16
9139;BME280;4604;48.616;9.548;2023-04-24T02:45:10;95882.47;;;11.63;88.64
9139;BME280;4604;48.616;9.548;2023-04-24T02:47:37;95886.78;;;11.64;88.57
9139;BME280;4604;48.616;9.548;2023-04-24T02:50:06;95887.75;;;11.63;88.86
9139;BME280;4604;48.616;9.548;2023-04-24T02:52:33;95889.22;;;11.65;89.44
9139;BME280;4604;48.616;9.548;2023-04-24T02:55:00;95885.25;;;11.69;89.75
9139;BME280;4604;48.616;9.548;2023-04-24T02:57:26;95878.44;;;11.75;89.07
9139;BME280;4604;48.616;9.548;2023-04-24T02:59:53;95874.34;;;11.72;88.39
9139;BME280;4604;48.616;9.548;2023-04-24T03:02:20;95868.53;;;11.77;87.10
9139;BME280;4604;48.616;9.548;2023-04-24T03:04:46;95866.91;;;11.76;85.99
9139;BME280;4604;48.616;9.548;2023-04-24T03:07:15;95862.88;;;11.80;86.11
9139;BME280;4604;48.616;9.548;2023-04-24T03:09:41;95861.59;;;11.76;86.62
9139;BME280;4604;48.616;9.548;2023-04-24T03:12:08;95845.97;;;11.66;87.70
9139;BME280;4604;48.616;9.548;2023-04-24T03:14:35;95870.19;;;11.78;88.23
9139;BME280;4604;48.616;9.548;2023-04-24T03:17:01;95869.09;;;11.64;89.32
9139;BME280;4604;48.616;9.548;2023-04-24T03:19:28;95869.25;;;11.63;89.81
9139;BME280;4604;48.616;9.548;2023-04-24T03:21:54;95872.75;;;11.55;90.17
9139;BME280;4604;48.616;9.548;2023-04-24T03:24:23;95872.94;;;11.53;90.38
9139;BME280;4604;48.616;9.548;2023-04-24T03:26:49;95871.44;;;11.59;90.08
9139;BME280;4604;48.616;9.548;2023-04-24T03:29:16;95872.09;;;11.53;90.58
9139;BME280;4604;48.616;9.548;2023-04-24T03:31:43;95878.22;;;11.53;90.29
9139;BME280;4604;48.616;9.548;2023-04-24T03:34:09;95874.44;;;11.48;90.37
9139;BME280;4604;48.616;9.548;2023-04-24T03:36:36;95867.97;;;11.50;90.55
9139;BME280;4604;48.616;9.548;2023-04-24T03:39:03;95874.22;;;11.57;90.59
9139;BME280;4604;48.616;9.548;2023-04-24T03:41:31;95881.50;;;11.64;89.40
9139;BME280;4604;48.616;9.548;2023-04-24T03:43:57;95880.34;;;11.58;89.90
9139;BME280;4604;48.616;9.548;2023-04-24T03:46:24;95875.19;;;11.65;91.15
9139;BME280;4604;48.616;9.548;2023-04-24T03:48:51;95867.47;;;11.63;92.89
9139;BME280;4604;48.616;9.548;2023-04-24T03:51:17;95866.66;;;11.54;94.76
9139;BME280;4604;48.616;9.548;2023-04-24T03:53:44;95868.47;;;11.54;97.18
9139;BME280;4604;48.616;9.548;2023-04-24T03:56:10;95872.97;;;11.45;98.35
9139;BME280;4604;48.616;9.548;2023-04-24T03:58:38;95879.75;;;11.40;99.12
9139;BME280;4604;48.616;9.548;2023-04-24T04:01:05;95874.47;;;11.40;99.92
9139;BME280;4604;48.616;9.548;2023-04-24T04:03:32;95875.78;;;11.44;98.48
9139;BME280;4604;48.616;9.548;2023-04-24T04:05:59;95875.63;;;11.37;99.05
9139;BME280;4604;48.616;9.548;2023-04-24T04:08:26;95875.13;;;11.33;100.00
9139;BME280;4604;48.616;9.548;2023-04-24T04:10:52;95881.47;;;11.24;100.00
9139;BME280;4604;48.616;9.548;2023-04-24T04:13:19;95878.44;;;11.35;100.00
9139;BME280;4604;48.616;9.548;2023-04-24T04:15:47;95885.69;;;11.33;96.97
9139;BME280;4604;48.616;9.548;2023-04-24T04:18:14;95887.72;;;11.23;95.16
9139;BME280;4604;48.616;9.548;2023-04-24T04:20:40;95894.50;;;11.09;94.83
9139;BME280;4604;48.616;9.548;2023-04-24T04:23:07;95894.19;;;11.12;94.12
9139;BME280;4604;48.616;9.548;2023-04-24T04:25:34;95891.88;;;11.18;94.25
9139;BME280;4604;48.616;9.548;2023-04-24T04:28:00;95897.16;;;11.18;93.72
9139;BME280;4604;48.616;9.548;2023-04-24T04:30:27;95894.50;;;11.18;93.57
9139;BME280;4604;48.616;9.548;2023-04-24T04:32:56;95887.75;;;11.15;93.67
9139;BME280;4604;48.616;9.548;2023-04-24T04:35:22;95901.09;;;11.13;93.85
9139;BME280;4604;48.616;9.548;2023-04-24T04:37:49;95912.66;;;11.12;93.82
9139;BME280;4604;48.616;9.548;2023-04-24T04:40:16;95915.97;;;11.14;92.09
9139;BME280;4604;48.616;9.548;2023-04-24T04:42:43;95918.28;;;11.18;91.79
9139;BME280;4604;48.616;9.548;2023-04-24T04:45:11;95919.25;;;11.17;92.59
9139;BME280;4604;48.616;9.548;2023-04-24T04:47:38;95921.06;;;11.16;93.75
9139;BME280;4604;48.616;9.548;2023-04-24T04:50:06;95918.63;;;11.14;94.61
9139;BME280;4604;48.616;9.548;2023-04-24T04:52:33;95909.84;;;11.22;95.53
9139;BME280;4604;48.616;9.548;2023-04-24T04:55:00;95921.38;;;11.21;96.12
9139;BME280;4604;48.616;9.548;2023-04-24T04:57:26;95918.94;;;11.20;97.19
9139;BME280;4604;48.616;9.548;2023-04-24T04:59:53;95914.81;;;11.17;97.88
9139;BME280;4604;48.616;9.548;2023-04-24T05:02:20;95921.22;;;11.23;98.05
9139;BME280;4604;48.616;9.548;2023-04-24T05:04:46;95912.16;;;11.25;98.20
9139;BME280;4604;48.616;9.548;2023-04-24T05:07:14;95910.97;;;11.28;98.29
9139;BME280;4604;48.616;9.548;2023-04-24T05:09:41;95926.34;;;11.32;99.20
9139;BME280;4604;48.616;9.548;2023-04-24T05:12:07;95942.38;;;11.23;100.00
9139;BME280;4604;48.616;9.548;2023-04-24T05:14:34;95968.59;;;11.16;100.00
9139;BME280;4604;48.616;9.548;2023-04-24T05:17:01;95984.97;;;10.95;100.00
9139;BME280;4604;48.616;9.548;2023-04-24T05:19:28;96016.09;;;10.75;100.00
9139;BME280;4604;48.616;9.548;2023-04-24T05:21:54;96033.88;;;10.14;100.00
9139;BME280;4604;48.616;9.548;2023-04-24T05:24:22;96026.28;;;9.77;100.00
9139;BME280;4604;48.616;9.548;2023-04-24T05:26:49;96022.59;;;9.61;100.00
9139;BME280;4604;48.616;9.548;2023-04-24T05:29:15;96030.41;;;9.53;100.00
9139;BME280;4604;48.616;9.548;2023-04-24T05:31:44;96025.94;;;9.72;100.00
9139;BME280;4604;48.616;9.548;2023-04-24T05:34:10;96032.22;;;9.53;100.00
9139;BME280;4604;48.616;9.548;2023-04-24T05:36:37;96051.19;;;9.56;100.00
9139;BME280;4604;48.616;9.548;2023-04-24T05:39:04;96050.75;;;9.43;100.00
9139;BME280;4604;48.616;9.548;2023-04-24T05:41:32;96050.56;;;9.36;100.00
9139;BME280;4604;48.616;9.548;2023-04-24T05:43:59;96062.97;;;9.44;100.00
9139;BME280;4604;48.616;9.548;2023-04-24T05:46:25;96050.94;;;9.24;100.00
9139;BME280;4604;48.616;9.548;2023-04-24T05:48:52;96016.97;;;9.12;100.00
9139;BME280;4604;48.616;9.548;2023-04-24T05:51:19;96056.66;;;9.19;100.00
9139;BME280;4604;48.616;9.548;2023-04-24T05:53:45;96066.81;;;9.14;100.00
9139;BME280;4604;48.616;9.548;2023-04-24T05:56:12;96051.31;;;9.29;100.00
9139;BME280;4604;48.616;9.548;2023-04-24T05:58:40;96065.47;;;9.28;100.00
9139;BME280;4604;48.616;9.548;2023-04-24T06:01:06;96064.34;;;9.30;100.00
9139;BME280;4604;48.616;9.548;2023-04-24T06:03:33;96072.97;;;9.40;100.00
9139;BME280;4604;48.616;9.548;2023-04-24T06:05:59;96076.22;;;9.34;100.00
9139;BME280;4604;48.616;9.548;2023-04-24T06:08:26;96072.28;;;9.38;100.00
9139;BME280;4604;48.616;9.548;2023-04-24T06:10:53;96084.72;;;9.46;100.00
9139;BME280;4604;48.616;9.548;2023-04-24T06:13:19;96074.56;;;9.33;100.00
9139;BME280;4604;48.616;9.548;2023-04-24T06:15:47;96080.31;;;9.55;100.00
9139;BME280;4604;48.616;9.548;2023-04-24T06:18:14;96069.28;;;9.51;100.00
9139;BME280;4604;48.616;9.548;2023-04-24T06:20:41;96062.81;;;9.72;100.00
9139;BME280;4604;48.616;9.548;2023-04-24T06:23:07;96068.44;;;9.77;100.00
9139;BME280;4604;48.616;9.548;2023-04-24T06:25:34;96064.38;;;9.56;100.00
9139;BME280;4604;48.616;9.548;2023-04-24T06:28:00;96065.13;;;9.75;100.00
9139;BME280;4604;48.616;9.548;2023-04-24T06:30:28;96072.31;;;9.91;100.00
9139;BME280;4604;48.616;9.548;2023-04-24T06:32:56;96069.16;;;9.87;100.00
9139;BME280;4604;48.616;9.548;2023-04-24T06:35:22;96066.69;;;9.85;100.00
9139;BME280;4604;48.616;9.548;2023-04-24T06:37:49;96076.47;;;9.93;100.00
9139;BME280;4604;48.616;9.548;2023-04-24T06:40:16;96069.34;;;9.85;100.00
9139;BME280;4604;48.616;9.548;2023-04-24T06:42:43;96065.75;;;9.95;100.00
9139;BME280;4604;48.616;9.548;2023-04-24T06:45:10;96060.06;;;9.81;100.00
9139;BME280;4604;48.616;9.548;2023-04-24T06:47:37;96053.69;;;9.92;100.00
9139;BME280;4604;48.616;9.548;2023-04-24T06:50:06;96060.75;;;10.18;100.00
9139;BME280;4604;48.616;9.548;2023-04-24T06:52:33;96060.69;;;10.36;100.00
9139;BME280;4604;48.616;9.548;2023-04-24T06:55:00;96062.84;;;10.40;100.00
9139;BME280;4604;48.616;9.548;2023-04-24T06:57:28;96065.22;;;10.52;100.00
9139;BME280;4604;48.616;9.548;2023-04-24T06:59:55;96069.81;;;10.49;100.00
9139;BME280;4604;48.616;9.548;2023-04-24T07:02:22;96070.16;;;10.55;100.00
9139;BME280;4604;48.616;9.548;2023-04-24T07:04:48;96065.22;;;10.52;100.00
9139;BME280;4604;48.616;9.548;2023-04-24T07:07:16;96073.13;;;10.52;100.00
9139;BME280;4604;48.616;9.548;2023-04-24T07:09:43;96068.91;;;10.83;100.00
9139;BME280;4604;48.616;9.548;2023-04-24T07:12:10;96072.41;;;11.00;100.00
9139;BME280;4604;48.616;9.548;2023-04-24T07:14:37;96075.72;;;11.02;100.00
9139;BME280;4604;48.616;9.548;2023-04-24T07:17:04;96080.03;;;11.20;100.00
9139;BME280;4604;48.616;9.548;2023-04-24T07:19:31;96076.53;;;11.03;96.61
9139;BME280;4604;48.616;9.548;2023-04-24T07:21:59;96067.13;;;11.17;98.38
9139;BME280;4604;48.616;9.548;2023-04-24T07:24:27;96067.47;;;11.38;88.98
9139;BME280;4604;48.616;9.548;2023-04-24T07:26:54;96067.47;;;11.54;89.62
9139;BME280;4604;48.616;9.548;2023-04-24T07:29:20;96068.44;;;11.70;89.57
9139;BME280;4604;48.616;9.548;2023-04-24T07:31:47;96068.13;;;11.65;89.25
9139;BME280;4604;48.616;9.548;2023-04-24T07:34:14;96066.16;;;11.59;92.11
9139;BME280;4604;48.616;9.548;2023-04-24T07:36:40;96068.97;;;11.57;88.16
9139;BME280;4604;48.616;9.548;2023-04-24T07:39:07;96075.88;;;11.58;89.24
9139;BME280;4604;48.616;9.548;2023-04-24T07:41:35;96073.25;;;11.50;85.40
9139;BME280;4604;48.616;9.548;2023-04-24T07:44:02;96093.53;;;11.17;87.63
9139;BME280;4604;48.616;9.548;2023-04-24T07:46:29;96073.38;;;10.99;86.47
9139;BME280;4604;48.616;9.548;2023-04-24T07:48:56;96096.34;;;11.07;89.17
9139;BME280;4604;48.616;9.548;2023-04-24T07:51:24;96104.63;;;11.20;89.88
9139;BME280;4604;48.616;9.548;2023-04-24T07:53:52;96097.81;;;10.93;91.20
9139;BME280;4604;48.616;9.548;2023-04-24T07:56:19;96107.97;;;10.71;97.69
9139;BME280;4604;48.616;9.548;2023-04-24T07:58:47;96088.69;;;10.79;98.60
9139;BME280;4604;48.616;9.548;2023-04-24T08:01:14;96115.75;;;10.73;93.92
9139;BME280;4604;48.616;9.548;2023-04-24T08:03:40;96115.75;;;10.73;97.87
9139;BME280;4604;48.616;9.548;2023-04-24T08:06:07;96129.25;;;10.70;96.62
9139;BME280;4604;48.616;9.548;2023-04-24T08:08:34;96131.84;;;10.54;99.28
9139;BME280;4604;48.616;9.548;2023-04-24T08:11:00;96151.28;;;10.53;97.08
9139;BME280;4604;48.616;9.548;2023-04-24T08:13:27;96134.84;;;10.75;93.55
9139;BME280;4604;48.616;9.548;2023-04-24T08:15:56;96142.81;;;10.83;98.38
9139;BME280;4604;48.616;9.548;2023-04-24T08:18:23;96133.81;;;11.10;100.00
9139;BME280;4604;48.616;9.548;2023-04-24T08:20:49;96136.00;;;11.31;100.00
9139;BME280;4604;48.616;9.548;2023-04-24T08:23:16;96122.47;;;11.34;100.00
9139;BME280;4604;48.616;9.548;2023-04-24T08:25:42;96154.94;;;11.10;100.00
9139;BME280;4604;48.616;9.548;2023-04-24T08:28:09;96132.13;;;11.01;100.00
9139;BME280;4604;48.616;9.548;2023-04-24T08:30:36;96152.78;;;10.98;87.35
9139;BME280;4604;48.616;9.548;2023-04-24T08:33:05;96165.84;;;11.16;84.11
9139;BME280;4604;48.616;9.548;2023-04-24T08:35:32;96166.13;;;11.04;81.41
9139;BME280;4604;48.616;9.548;2023-04-24T08:37:58;96166.47;;;11.01;80.02
9139;BME280;4604;48.616;9.548;2023-04-24T08:40:28;96167.34;;;11.26;79.47
9139;BME280;4604;48.616;9.548;2023-04-24T08:42:56;96172.97;;;11.23;76.93
9139;BME280;4604;48.616;9.548;2023-04-24T08:45:23;96158.97;;;11.39;74.55
9139;BME280;4604;48.616;9.548;2023-04-24T08:47:50;96174.00;;;11.71;74.11
9139;BME280;4604;48.616;9.548;2023-04-24T08:50:20;96191.03;;;11.69;68.06
9139;BME280;4604;48.616;9.548;2023-04-24T08:52:47;96179.81;;;11.91;70.95
9139;BME280;4604;48.616;9.548;2023-04-24T08:55:15;96166.91;;;12.13;66.03
9139;BME280;4604;48.616;9.548;2023-04-24T08:57:44;96206.56;;;12.37;63.89
9139;BME280;4604;48.616;9.548;2023-04-24T09:00:14;96215.66;;;12.18;62.85
9139;BME280;4604;48.616;9.548;2023-04-24T09:02:42;96193.53;;;12.03;63.44
9139;BME280;4604;48.616;9.548;2023-04-24T09:05:10;96196.84;;;11.97;62.71
9139;BME280;4604;48.616;9.548;2023-04-24T09:07:39;96194.53;;;12.27;61.01
9139;BME280;4604;48.616;9.548;2023-04-24T09:10:08;96204.56;;;12.39;59.95
9139;BME280;4604;48.616;9.548;2023-04-24T09:12:35;96189.06;;;12.12;59.63
9139;BME280;4604;48.616;9.548;2023-04-24T09:15:02;96197.97;;;12.27;61.76
9139;BME280;4604;48.616;9.548;2023-04-24T09:17:30;96195.34;;;12.27;59.55
9139;BME280;4604;48.616;9.548;2023-04-24T09:19:57;96202.59;;;12.33;59.53
9139;BME280;4604;48.616;9.548;2023-04-24T09:22:23;96194.28;;;12.53;58.51
9139;BME280;4604;48.616;9.548;2023-04-24T09:25:02;96183.97;;;12.74;56.51
9139;BME280;4604;48.616;9.548;2023-04-24T09:27:29;96180.63;;;13.20;55.77
9139;BME280;4604;48.616;9.548;2023-04-24T09:29:56;96186.91;;;13.19;55.59
9139;BME280;4604;48.616;9.548;2023-04-24T09:32:24;96180.09;;;13.24;54.66
9139;BME280;4604;48.616;9.548;2023-04-24T09:35:05;96192.44;;;13.40;54.24
9139;BME280;4604;48.616;9.548;2023-04-24T09:37:35;96189.34;;;12.97;53.35
9139;BME280;4604;48.616;9.548;2023-04-24T09:40:14;96190.56;;;13.18;54.76
9139;BME280;4604;48.616;9.548;2023-04-24T09:42:45;96196.34;;;12.82;54.20
9139;BME280;4604;48.616;9.548;2023-04-24T09:45:13;96214.13;;;13.04;55.17
9139;BME280;4604;48.616;9.548;2023-04-24T09:47:40;96220.88;;;12.76;49.99
9139;BME280;4604;48.616;9.548;2023-04-24T09:50:12;96214.81;;;12.42;49.80
9139;BME280;4604;48.616;9.548;2023-04-24T09:52:43;96216.78;;;12.40;50.45
9139;BME280;4604;48.616;9.548;2023-04-24T09:55:20;96198.53;;;12.70;49.79
9139;BME280;4604;48.616;9.548;2023-04-24T09:57:50;96228.84;;;12.59;50.09
9139;BME280;4604;48.616;9.548;2023-04-24T10:00:21;96212.50;;;12.31;51.89
9139;BME280;4604;48.616;9.548;2023-04-24T10:02:55;96206.59;;;12.29;51.34
9139;BME280;4604;48.616;9.548;2023-04-24T10:05:27;96224.13;;;12.22;52.97
9139;BME280;4604;48.616;9.548;2023-04-24T10:08:00;96212.34;;;11.84;54.19
9139;BME280;4604;48.616;9.548;2023-04-24T10:10:29;96218.78;;;11.56;55.60
9139;BME280;4604;48.616;9.548;2023-04-24T10:12:56;96224.53;;;11.44;56.13
9139;BME280;4604;48.616;9.548;2023-04-24T10:15:24;96235.66;;;11.21;55.83
9139;BME280;4604;48.616;9.548;2023-04-24T10:17:51;96220.69;;;11.22;56.44
